createdAt,value
2023-02-17T00:01:36.382Z,10.80
2023-02-17T00:04:04.399Z,10.80
2023-02-17T00:06:32.828Z,10.80
2023-02-17T00:09:02.430Z,10.80
2023-02-17T00:11:30.623Z,10.80
2023-02-17T00:13:58.596Z,10.80
2023-02-17T00:16:28.391Z,10.80
2023-02-17T00:18:58.634Z,10.80
2023-02-17T00:21:29.308Z,10.80
2023-02-17T00:23:59.356Z,10.80
2023-02-17T00:26:28.948Z,10.80
2023-02-17T00:28:56.934Z,10.90
2023-02-17T00:31:25.194Z,10.90
2023-02-17T00:33:57.981Z,10.90
2023-02-17T00:36:27.362Z,10.90
2023-02-17T00:38:57.385Z,10.90
2023-02-17T00:41:26.647Z,10.90
2023-02-17T00:43:55.924Z,10.90
2023-02-17T00:46:24.458Z,10.90
2023-02-17T00:48:52.519Z,10.90
2023-02-17T00:51:20.723Z,10.90
2023-02-17T00:53:48.667Z,10.90
2023-02-17T00:56:17.077Z,10.90
2023-02-17T00:58:46.224Z,10.90
2023-02-17T01:01:15.602Z,10.90
2023-02-17T01:03:43.701Z,10.90
2023-02-17T01:06:20.383Z,10.90
2023-02-17T01:08:48.306Z,10.90
2023-02-17T01:11:18.818Z,10.90
2023-02-17T01:13:46.822Z,10.90
2023-02-17T01:16:21.345Z,10.80
2023-02-17T01:18:50.000Z,10.80
2023-02-17T01:21:18.994Z,10.80
2023-02-17T01:23:47.072Z,10.80
2023-02-17T01:26:15.787Z,10.80
2023-02-17T01:28:43.789Z,10.80
2023-02-17T01:31:12.606Z,10.80
2023-02-17T01:33:43.032Z,10.80
2023-02-17T01:36:14.036Z,10.80
2023-02-17T01:38:42.508Z,10.80
2023-02-17T01:41:10.977Z,10.80
2023-02-17T01:43:39.014Z,10.80
2023-02-17T01:46:09.363Z,10.80
2023-02-17T01:48:44.323Z,10.70
2023-02-17T01:51:17.648Z,10.70
2023-02-17T01:53:51.061Z,10.70
2023-02-17T01:56:19.843Z,10.70
2023-02-17T01:58:54.754Z,10.70
2023-02-17T02:01:23.344Z,10.70
2023-02-17T02:03:53.446Z,10.70
2023-02-17T02:06:26.651Z,10.60
2023-02-17T02:08:57.474Z,10.60
2023-02-17T02:11:25.410Z,10.60
2023-02-17T02:13:53.445Z,10.60
2023-02-17T02:16:26.107Z,10.60
2023-02-17T02:19:04.435Z,10.50
2023-02-17T02:21:52.438Z,10.50
2023-02-17T02:24:43.052Z,10.60
2023-02-17T02:27:46.488Z,10.50
2023-02-17T02:30:45.815Z,10.60
2023-02-17T02:33:25.739Z,10.60
2023-02-17T02:35:59.937Z,10.50
2023-02-17T02:38:33.263Z,10.50
2023-02-17T02:41:08.368Z,10.50
2023-02-17T02:43:36.761Z,10.60
2023-02-17T02:46:05.003Z,10.60
2023-02-17T02:48:34.759Z,10.60
2023-02-17T02:51:33.218Z,10.60
2023-02-17T02:54:20.876Z,10.60
2023-02-17T02:57:02.278Z,10.60
2023-02-17T02:59:41.545Z,10.60
2023-02-17T03:02:17.571Z,10.70
2023-02-17T03:04:53.961Z,10.70
2023-02-17T03:07:27.549Z,10.70
2023-02-17T03:09:58.149Z,10.70
2023-02-17T03:12:27.541Z,10.70
2023-02-17T03:15:00.653Z,10.70
2023-02-17T03:17:32.002Z,10.70
2023-02-17T03:20:03.480Z,10.70
2023-02-17T03:22:34.619Z,10.70
2023-02-17T03:25:04.133Z,10.70
2023-02-17T03:27:32.029Z,10.70
2023-02-17T03:29:59.971Z,10.70
2023-02-17T03:32:28.099Z,10.70
2023-02-17T03:34:55.993Z,10.70
2023-02-17T03:37:25.312Z,10.80
2023-02-17T03:39:53.224Z,10.80
2023-02-17T03:42:21.458Z,10.80
2023-02-17T03:44:49.402Z,10.80
2023-02-17T03:47:17.352Z,10.70
2023-02-17T03:49:45.219Z,10.70
2023-02-17T03:52:13.165Z,10.70
2023-02-17T03:54:42.431Z,10.70
2023-02-17T03:57:10.454Z,10.70
2023-02-17T03:59:38.390Z,10.70
2023-02-17T04:02:06.347Z,10.70
2023-02-17T04:04:34.285Z,10.70
2023-02-17T04:07:02.177Z,10.70
2023-02-17T04:09:30.139Z,10.80
2023-02-17T04:11:59.400Z,10.80
2023-02-17T04:14:27.314Z,10.80
2023-02-17T04:16:55.235Z,10.80
2023-02-17T04:19:23.105Z,10.80
2023-02-17T04:21:51.013Z,10.80
2023-02-17T04:24:18.949Z,10.80
2023-02-17T04:26:46.851Z,10.80
2023-02-17T04:29:16.166Z,10.80
2023-02-17T04:31:44.306Z,10.80
2023-02-17T04:34:12.325Z,10.80
2023-02-17T04:36:40.271Z,10.80
2023-02-17T04:39:08.238Z,10.80
2023-02-17T04:41:36.156Z,10.70
2023-02-17T04:44:04.077Z,10.70
2023-02-17T04:46:33.377Z,10.70
2023-02-17T04:49:01.290Z,10.80
2023-02-17T04:51:29.204Z,10.70
2023-02-17T04:53:57.103Z,10.70
2023-02-17T04:56:24.985Z,10.80
2023-02-17T04:58:52.899Z,10.80
2023-02-17T05:01:20.862Z,10.80
2023-02-17T05:03:50.093Z,10.70
2023-02-17T05:06:18.002Z,10.70
2023-02-17T05:08:48.006Z,10.80
2023-02-17T05:11:15.917Z,10.70
2023-02-17T05:13:43.876Z,10.70
2023-02-17T05:16:11.862Z,10.70
2023-02-17T05:18:39.812Z,10.70
2023-02-17T05:21:09.063Z,10.70
2023-02-17T05:23:41.213Z,10.70
2023-02-17T05:26:09.895Z,10.70
2023-02-17T05:28:38.717Z,10.70
2023-02-17T05:31:06.889Z,10.70
2023-02-17T05:33:34.877Z,10.70
2023-02-17T05:36:04.673Z,10.70
2023-02-17T05:38:34.265Z,10.70
2023-02-17T05:41:02.369Z,10.70
2023-02-17T05:43:30.403Z,10.70
2023-02-17T05:46:02.048Z,10.70
2023-02-17T05:48:30.281Z,10.60
2023-02-17T05:50:58.239Z,10.60
2023-02-17T05:53:26.177Z,10.60
2023-02-17T05:55:55.678Z,10.60
2023-02-17T05:58:23.668Z,10.60
2023-02-17T06:00:51.664Z,10.60
2023-02-17T06:03:19.648Z,10.60
2023-02-17T06:05:48.055Z,10.50
2023-02-17T06:08:15.943Z,10.60
2023-02-17T06:10:44.305Z,10.60
2023-02-17T06:13:13.616Z,10.60
2023-02-17T06:15:42.367Z,10.60
2023-02-17T06:18:10.263Z,10.60
2023-02-17T06:20:38.301Z,10.60
2023-02-17T06:23:06.382Z,10.60
2023-02-17T06:25:34.429Z,10.60
2023-02-17T06:28:02.371Z,10.60
2023-02-17T06:30:31.970Z,10.60
2023-02-17T06:33:00.232Z,10.60
2023-02-17T06:35:28.345Z,10.60
2023-02-17T06:37:56.412Z,10.60
2023-02-17T06:40:24.632Z,10.60
2023-02-17T06:42:52.774Z,10.60
2023-02-17T06:45:20.903Z,10.60
2023-02-17T06:47:50.337Z,10.70
2023-02-17T06:50:18.403Z,10.70
2023-02-17T06:52:46.465Z,10.70
2023-02-17T06:55:14.519Z,10.70
2023-02-17T06:57:42.733Z,10.70
2023-02-17T07:00:11.425Z,10.70
2023-02-17T07:02:39.603Z,10.70
2023-02-17T07:05:09.809Z,10.70
2023-02-17T07:07:37.917Z,10.80
2023-02-17T07:10:07.385Z,10.80
2023-02-17T07:12:35.442Z,10.80
2023-02-17T07:15:03.604Z,10.80
2023-02-17T07:17:32.770Z,10.80
2023-02-17T07:20:00.784Z,10.80
2023-02-17T07:22:30.287Z,10.80
2023-02-17T07:24:58.169Z,10.80
2023-02-17T07:27:26.083Z,10.90
2023-02-17T07:29:53.989Z,10.90
2023-02-17T07:32:22.257Z,10.90
2023-02-17T07:34:50.468Z,11.00
2023-02-17T07:37:20.096Z,11.00
2023-02-17T07:39:49.851Z,11.00
2023-02-17T07:42:17.964Z,11.10
2023-02-17T07:44:46.009Z,11.10
2023-02-17T07:47:14.088Z,11.10
2023-02-17T07:49:42.149Z,11.10
2023-02-17T07:52:10.195Z,11.20
2023-02-17T07:54:38.472Z,11.20
2023-02-17T07:57:07.965Z,11.30
2023-02-17T07:59:36.073Z,11.30
2023-02-17T08:02:04.635Z,11.30
2023-02-17T08:04:33.725Z,11.30
2023-02-17T08:07:01.990Z,11.40
2023-02-17T08:09:47.398Z,11.40
2023-02-17T08:12:36.351Z,11.40
2023-02-17T08:15:04.810Z,11.40
2023-02-17T08:17:32.828Z,11.40
2023-02-17T08:20:08.080Z,11.50
2023-02-17T08:22:36.546Z,11.50
2023-02-17T08:25:06.213Z,11.50
2023-02-17T08:27:35.831Z,11.60
2023-02-17T08:30:05.753Z,11.60
2023-02-17T08:32:33.926Z,11.60
2023-02-17T08:35:02.087Z,11.60
2023-02-17T08:37:31.873Z,11.60
2023-02-17T08:40:00.252Z,11.60
2023-02-17T08:42:28.360Z,11.60
2023-02-17T08:44:57.820Z,11.60
2023-02-17T08:47:25.899Z,11.60
2023-02-17T08:49:53.971Z,11.60
2023-02-17T08:52:22.014Z,11.70
2023-02-17T08:54:52.535Z,11.70
2023-02-17T08:57:21.560Z,11.70
2023-02-17T08:59:50.757Z,11.70
2023-02-17T09:02:20.297Z,11.70
2023-02-17T09:04:48.500Z,11.70
2023-02-17T09:07:17.151Z,11.70
2023-02-17T09:09:45.511Z,11.80
2023-02-17T09:12:13.670Z,11.80
2023-02-17T09:14:41.962Z,11.80
2023-02-17T09:17:11.386Z,11.80
2023-02-17T09:19:41.389Z,11.80
2023-02-17T09:22:13.573Z,11.80
2023-02-17T09:24:46.251Z,11.90
2023-02-17T09:27:14.774Z,11.90
2023-02-17T09:29:42.879Z,11.90
2023-02-17T09:32:11.084Z,11.90
2023-02-17T09:34:41.905Z,11.90
2023-02-17T09:37:13.029Z,11.90
2023-02-17T09:39:41.233Z,11.90
2023-02-17T09:42:18.722Z,12.00
2023-02-17T09:44:52.245Z,12.00
2023-02-17T09:47:24.766Z,12.00
2023-02-17T09:49:58.410Z,12.00
2023-02-17T09:52:31.938Z,12.00
2023-02-17T09:55:06.024Z,12.00
2023-02-17T09:57:38.954Z,12.00
2023-02-17T10:00:12.019Z,12.00
2023-02-17T10:02:48.441Z,11.90
2023-02-17T10:05:22.999Z,12.00
2023-02-17T10:07:57.217Z,12.00
2023-02-17T10:10:32.658Z,12.00
2023-02-17T10:13:03.399Z,12.10
2023-02-17T10:15:37.192Z,12.20
2023-02-17T10:18:11.797Z,12.20
2023-02-17T10:20:43.984Z,12.30
2023-02-17T10:23:18.086Z,12.30
2023-02-17T10:26:10.568Z,12.30
2023-02-17T10:29:03.986Z,12.40
2023-02-17T10:31:46.034Z,12.30
2023-02-17T10:34:26.285Z,12.30
2023-02-17T10:37:01.406Z,12.30
2023-02-17T10:39:46.560Z,12.30
2023-02-17T10:42:22.082Z,12.20
2023-02-17T10:44:52.611Z,12.30
2023-02-17T10:47:23.739Z,12.30
2023-02-17T10:49:54.264Z,12.30
2023-02-17T10:52:27.372Z,12.30
2023-02-17T10:55:00.081Z,12.40
2023-02-17T10:57:34.111Z,12.40
2023-02-17T11:00:02.163Z,12.50
2023-02-17T11:02:37.952Z,12.50
2023-02-17T11:05:06.853Z,12.50
2023-02-17T11:07:40.040Z,12.50
2023-02-17T11:10:23.592Z,12.40
2023-02-17T11:12:52.231Z,12.40
2023-02-17T11:15:23.255Z,12.50
2023-02-17T11:17:52.318Z,12.40
2023-02-17T11:20:34.472Z,12.50
2023-02-17T11:23:25.302Z,12.50
2023-02-17T11:26:10.120Z,12.60
2023-02-17T11:28:38.512Z,12.50
2023-02-17T11:31:07.272Z,12.50
2023-02-17T11:33:37.748Z,12.50
2023-02-17T11:36:07.956Z,12.50
2023-02-17T11:38:47.878Z,12.50
2023-02-17T11:41:15.908Z,12.40
2023-02-17T11:43:53.455Z,12.40
2023-02-17T11:46:34.812Z,12.40
2023-02-17T11:49:41.420Z,12.40
2023-02-17T11:52:26.146Z,12.30
2023-02-17T11:55:09.047Z,12.30
2023-02-17T11:57:43.242Z,12.30
2023-02-17T12:00:18.703Z,12.20
2023-02-17T12:03:02.628Z,12.20
2023-02-17T12:05:41.587Z,12.20
2023-02-17T12:08:23.469Z,12.20
2023-02-17T12:11:07.548Z,12.20
2023-02-17T12:13:45.353Z,12.20
2023-02-17T12:16:25.097Z,12.10
2023-02-17T12:19:02.882Z,12.00
2023-02-17T12:21:45.924Z,12.00
2023-02-17T12:24:35.829Z,11.90
2023-02-17T12:27:22.429Z,11.90
2023-02-17T12:30:05.541Z,11.90
2023-02-17T12:32:43.215Z,11.90
2023-02-17T12:35:20.022Z,11.80
2023-02-17T12:37:54.206Z,11.80
2023-02-17T12:40:37.576Z,11.90
2023-02-17T12:43:21.766Z,11.80
2023-02-17T12:45:52.098Z,11.80
2023-02-17T12:48:27.204Z,11.80
2023-02-17T12:51:00.636Z,11.70
2023-02-17T12:53:43.276Z,11.70
2023-02-17T12:56:34.695Z,11.70
2023-02-17T12:59:14.212Z,11.60
2023-02-17T13:01:54.097Z,11.60
2023-02-17T13:04:26.274Z,11.60
2023-02-17T13:07:03.277Z,11.70
2023-02-17T13:09:35.368Z,11.70
2023-02-17T13:12:31.398Z,11.70
2023-02-17T13:15:05.067Z,11.70
2023-02-17T13:17:37.219Z,11.70
2023-02-17T13:20:27.909Z,11.70
2023-02-17T13:23:08.996Z,11.70
2023-02-17T13:25:38.278Z,11.80
2023-02-17T13:28:35.775Z,11.80
2023-02-17T13:31:15.171Z,11.70
2023-02-17T13:33:47.331Z,11.70
2023-02-17T13:36:20.902Z,11.70
2023-02-17T13:39:03.087Z,11.70
2023-02-17T13:41:36.018Z,11.70
2023-02-17T13:44:28.356Z,11.80
2023-02-17T13:47:01.056Z,11.80
2023-02-17T13:49:33.017Z,11.80
2023-02-17T13:52:13.018Z,11.90
2023-02-17T13:54:42.048Z,11.90
2023-02-17T13:57:24.494Z,11.90
2023-02-17T13:59:52.538Z,12.00
2023-02-17T14:02:35.544Z,12.00
2023-02-17T14:05:18.085Z,12.00
2023-02-17T14:07:48.285Z,12.10
2023-02-17T14:10:23.472Z,12.20
2023-02-17T14:12:52.918Z,12.10
2023-02-17T14:15:23.224Z,12.20
2023-02-17T14:17:52.812Z,12.20
2023-02-17T14:20:30.329Z,12.20
2023-02-17T14:23:06.734Z,12.20
2023-02-17T14:25:38.063Z,12.20
2023-02-17T14:28:18.218Z,12.20
2023-02-17T14:30:46.539Z,12.20
2023-02-17T14:33:23.617Z,12.20
2023-02-17T14:35:54.040Z,12.20
2023-02-17T14:38:24.227Z,12.30
2023-02-17T14:40:55.887Z,12.30
2023-02-17T14:43:24.698Z,12.40
2023-02-17T14:45:52.812Z,12.40
2023-02-17T14:48:22.397Z,12.40
2023-02-17T14:50:50.861Z,12.40
2023-02-17T14:53:26.421Z,12.40
2023-02-17T14:56:00.217Z,12.40
2023-02-17T14:58:29.936Z,12.40
2023-02-17T15:00:58.242Z,12.50
2023-02-17T15:03:27.813Z,12.50
2023-02-17T15:05:56.429Z,12.50
2023-02-17T15:08:32.761Z,12.50
2023-02-17T15:11:01.487Z,12.50
2023-02-17T15:13:31.728Z,12.60
2023-02-17T15:16:00.191Z,12.60
2023-02-17T15:18:29.717Z,12.70
2023-02-17T15:20:58.265Z,12.60
2023-02-17T15:23:29.222Z,12.60
2023-02-17T15:25:57.425Z,12.70
2023-02-17T15:28:25.543Z,12.60
2023-02-17T15:30:56.857Z,12.60
2023-02-17T15:33:25.866Z,12.50
2023-02-17T15:35:56.162Z,12.50
2023-02-17T15:38:27.191Z,12.50
2023-02-17T15:40:58.394Z,12.50
2023-02-17T15:43:32.646Z,12.50
2023-02-17T15:46:00.762Z,12.40
2023-02-17T15:48:31.935Z,12.40
2023-02-17T15:51:01.357Z,12.40
2023-02-17T15:53:32.478Z,12.40
2023-02-17T15:56:01.699Z,12.40
2023-02-17T15:58:30.409Z,12.30
2023-02-17T16:01:03.882Z,12.30
2023-02-17T16:03:32.062Z,12.30
2023-02-17T16:06:01.565Z,12.30
2023-02-17T16:08:29.602Z,12.30
2023-02-17T16:10:57.660Z,12.30
2023-02-17T16:13:28.138Z,12.30
2023-02-17T16:15:59.164Z,12.20
2023-02-17T16:18:27.212Z,12.20
2023-02-17T16:20:55.187Z,12.10
2023-02-17T16:23:24.595Z,12.10
2023-02-17T16:25:52.797Z,12.10
2023-02-17T16:28:23.064Z,12.00
2023-02-17T16:30:51.750Z,12.00
2023-02-17T16:33:19.846Z,12.00
2023-02-17T16:35:47.946Z,12.00
2023-02-17T16:38:22.316Z,12.00
2023-02-17T16:40:54.805Z,11.90
2023-02-17T16:43:25.349Z,11.90
2023-02-17T16:45:56.003Z,11.90
2023-02-17T16:48:26.001Z,11.80
2023-02-17T16:50:54.340Z,11.80
2023-02-17T16:53:22.411Z,11.80
2023-02-17T16:55:53.513Z,11.80
2023-02-17T16:58:27.157Z,11.80
2023-02-17T17:00:57.641Z,11.80
2023-02-17T17:03:25.739Z,11.80
2023-02-17T17:05:54.508Z,11.80
2023-02-17T17:08:22.601Z,11.70
2023-02-17T17:10:52.026Z,11.70
2023-02-17T17:13:20.345Z,11.70
2023-02-17T17:15:48.627Z,11.70
2023-02-17T17:18:21.379Z,11.70
2023-02-17T17:20:49.895Z,11.70
2023-02-17T17:23:18.837Z,11.60
2023-02-17T17:25:48.548Z,11.60
2023-02-17T17:28:20.076Z,11.60
2023-02-17T17:30:48.124Z,11.60
2023-02-17T17:33:17.160Z,11.60
2023-02-17T17:35:45.297Z,11.60
2023-02-17T17:38:15.356Z,11.60
2023-02-17T17:40:49.163Z,11.50
2023-02-17T17:43:20.430Z,11.60
2023-02-17T17:45:48.761Z,11.50
2023-02-17T17:48:17.636Z,11.50
2023-02-17T17:50:49.278Z,11.50
2023-02-17T17:53:17.357Z,11.50
2023-02-17T17:55:45.429Z,11.40
2023-02-17T17:58:13.890Z,11.40
2023-02-17T18:00:43.307Z,11.40
2023-02-17T18:03:11.672Z,11.40
2023-02-17T18:05:39.930Z,11.40
2023-02-17T18:08:09.121Z,11.40
2023-02-17T18:10:39.662Z,11.40
2023-02-17T18:13:09.721Z,11.40
2023-02-17T18:15:38.005Z,11.40
2023-02-17T18:18:07.726Z,11.40
2023-02-17T18:20:35.927Z,11.30
2023-02-17T18:23:04.070Z,11.30
2023-02-17T18:25:32.441Z,11.30
2023-02-17T18:28:00.660Z,11.30
2023-02-17T18:30:29.011Z,11.30
2023-02-17T18:32:57.164Z,11.30
2023-02-17T18:35:26.708Z,11.30
2023-02-17T18:37:54.872Z,11.30
2023-02-17T18:40:23.463Z,11.30
2023-02-17T18:42:51.544Z,11.30
2023-02-17T18:45:19.944Z,11.20
2023-02-17T18:47:48.334Z,11.20
2023-02-17T18:50:17.315Z,11.20
2023-02-17T18:52:46.774Z,11.20
2023-02-17T18:55:15.355Z,11.20
2023-02-17T18:57:44.813Z,11.20
2023-02-17T19:00:16.674Z,11.20
2023-02-17T19:02:45.092Z,11.20
2023-02-17T19:05:13.525Z,11.20
2023-02-17T19:07:41.627Z,11.20
2023-02-17T19:10:12.081Z,11.10
2023-02-17T19:12:40.123Z,11.10
2023-02-17T19:15:08.920Z,11.10
2023-02-17T19:17:37.078Z,11.00
2023-02-17T19:20:05.478Z,11.00
2023-02-17T19:22:36.291Z,11.00
2023-02-17T19:25:05.797Z,11.00
2023-02-17T19:27:35.744Z,10.90
2023-02-17T19:30:04.478Z,10.90
2023-02-17T19:32:33.109Z,10.90
2023-02-17T19:35:01.704Z,10.90
2023-02-17T19:37:30.216Z,10.90
2023-02-17T19:39:58.965Z,10.90
2023-02-17T19:42:27.568Z,11.00
2023-02-17T19:44:57.442Z,10.90
2023-02-17T19:47:25.944Z,10.90
2023-02-17T19:49:54.338Z,10.90
2023-02-17T19:52:22.797Z,10.90
2023-02-17T19:54:51.361Z,10.90
2023-02-17T19:57:19.768Z,10.90
2023-02-17T19:59:48.068Z,10.90
2023-02-17T20:02:17.891Z,10.80
2023-02-17T20:04:46.343Z,10.80
2023-02-17T20:07:14.840Z,10.80
2023-02-17T20:09:43.295Z,10.80
2023-02-17T20:12:11.706Z,10.80
2023-02-17T20:14:40.571Z,10.80
2023-02-17T20:17:08.933Z,10.80
2023-02-17T20:19:39.905Z,10.80
2023-02-17T20:22:09.355Z,10.80
2023-02-17T20:24:40.820Z,10.80
2023-02-17T20:27:09.502Z,10.80
2023-02-17T20:29:37.760Z,10.80
2023-02-17T20:32:06.835Z,10.70
2023-02-17T20:34:39.197Z,10.70
2023-02-17T20:37:08.463Z,10.70
2023-02-17T20:39:38.172Z,10.70
2023-02-17T20:42:06.382Z,10.60
2023-02-17T20:44:34.924Z,10.60
2023-02-17T20:47:03.380Z,10.60
2023-02-17T20:49:31.387Z,10.60
2023-02-17T20:52:00.886Z,10.50
2023-02-17T20:54:28.965Z,10.50
2023-02-17T20:56:59.286Z,10.50
2023-02-17T20:59:27.501Z,10.50
2023-02-17T21:01:55.734Z,10.40
2023-02-17T21:04:23.949Z,10.40
2023-02-17T21:06:52.023Z,10.40
2023-02-17T21:09:21.408Z,10.40
2023-02-17T21:11:49.504Z,10.40
2023-02-17T21:14:17.558Z,10.30
2023-02-17T21:16:46.497Z,10.30
2023-02-17T21:19:14.700Z,10.30
2023-02-17T21:21:43.252Z,10.20
2023-02-17T21:24:11.392Z,10.20
2023-02-17T21:26:40.912Z,10.20
2023-02-17T21:29:08.991Z,10.20
2023-02-17T21:31:37.236Z,10.20
2023-02-17T21:34:05.754Z,10.20
2023-02-17T21:36:34.191Z,10.20
2023-02-17T21:39:04.246Z,10.10
2023-02-17T21:41:32.801Z,10.20
2023-02-17T21:44:19.591Z,10.20
2023-02-17T21:46:47.656Z,10.20
2023-02-17T21:49:16.088Z,10.10
2023-02-17T21:51:44.339Z,10.10
2023-02-17T21:54:12.700Z,10.10
2023-02-17T21:56:40.790Z,10.10
2023-02-17T21:59:10.192Z,10.10
2023-02-17T22:01:38.581Z,10.10
2023-02-17T22:04:07.130Z,10.10
2023-02-17T22:06:37.733Z,10.20
2023-02-17T22:09:07.387Z,10.20
2023-02-17T22:11:39.256Z,10.20
2023-02-17T22:14:12.979Z,10.20
2023-02-17T22:16:41.273Z,10.20
2023-02-17T22:19:13.641Z,10.20
2023-02-17T22:21:43.613Z,10.30
2023-02-17T22:24:11.986Z,10.30
2023-02-17T22:26:40.046Z,10.30
2023-02-17T22:29:08.165Z,10.30
2023-02-17T22:31:37.802Z,10.30
2023-02-17T22:34:09.713Z,10.30
2023-02-17T22:36:38.429Z,10.30
2023-02-17T22:39:08.907Z,10.30
2023-02-17T22:41:38.790Z,10.30
2023-02-17T22:44:07.618Z,10.30
2023-02-17T22:46:37.326Z,10.40
2023-02-17T22:49:05.590Z,10.40
2023-02-17T22:51:37.072Z,10.40
2023-02-17T22:54:06.317Z,10.40
2023-02-17T22:56:34.957Z,10.40
2023-02-17T22:59:04.375Z,10.40
2023-02-17T23:01:34.707Z,10.40
2023-02-17T23:04:05.109Z,10.40
2023-02-17T23:06:34.877Z,10.40
2023-02-17T23:09:04.412Z,10.40
2023-02-17T23:11:54.449Z,10.50
2023-02-17T23:14:28.522Z,10.40
2023-02-17T23:17:00.957Z,10.40
2023-02-17T23:19:30.971Z,10.50
2023-02-17T23:22:01.036Z,10.50
2023-02-17T23:24:29.210Z,10.50
2023-02-17T23:26:59.901Z,10.50
2023-02-17T23:29:28.511Z,10.50
2023-02-17T23:31:56.667Z,10.50
2023-02-17T23:34:24.814Z,10.50
2023-02-17T23:36:54.176Z,10.50
2023-02-17T23:39:22.240Z,10.40
2023-02-17T23:41:50.414Z,10.40
2023-02-17T23:44:19.045Z,10.40
2023-02-17T23:46:47.171Z,10.40
2023-02-17T23:49:17.498Z,10.40
2023-02-17T23:51:46.858Z,10.40
2023-02-17T23:54:16.754Z,10.40
2023-02-17T23:56:45.014Z,10.30
2023-02-17T23:59:13.270Z,10.40
